Time;durP1;ratioP1;P1;durP2;ratioP2;P2;SDS_P1;SDS_P2;PMS_P1;PMS_P2;Temp;Humidity;BMP_temperature;BMP_pressure;BME280_temperature;BME280_humidity;BME280_pressure;Samples;Min_cycle;Max_cycle;Signal;HPM_P1;HPM_P2
2023/04/08 00:02:13;;;;;;;10.93;7.18;;;;;;;9.21;52.16;101766.31;5076280;28;20055;-79
2023/04/08 00:04:41;;;;;;;10.82;7.68;;;;;;;9.21;52.11;101761.72;5093234;28;20404;-81
2023/04/08 00:07:09;;;;;;;9.95;7.45;;;;;;;9.20;51.83;101764.56;5088952;28;20040;-80
2023/04/08 00:09:37;;;;;;;11.25;8.27;;;;;;;9.21;52.20;101766.31;5067474;28;20044;-79
2023/04/08 00:12:05;;;;;;;11.07;7.68;;;;;;;9.21;51.80;101774.50;5069710;28;20052;-81
2023/04/08 00:14:37;;;;;;;10.60;7.93;;;;;;;9.22;52.03;101768.06;5069867;28;20070;-78
2023/04/08 00:17:05;;;;;;;12.35;8.10;;;;;;;9.19;52.24;101771.88;5075299;28;20032;-79
2023/04/08 00:19:33;;;;;;;12.85;8.40;;;;;;;9.20;52.30;101770.03;5073748;28;20044;-78
2023/04/08 00:22:03;;;;;;;12.18;8.40;;;;;;;9.19;51.89;101771.88;5068861;28;20052;-79
2023/04/08 00:24:31;;;;;;;12.27;8.43;;;;;;;9.18;51.86;101770.13;5061687;28;20047;-79
2023/04/08 00:26:59;;;;;;;13.30;8.63;;;;;;;9.18;52.23;101775.56;5073622;28;20051;-79
2023/04/08 00:29:27;;;;;;;11.82;7.97;;;;;;;9.17;51.80;101772.94;5068415;28;20419;-78
2023/04/08 00:31:56;;;;;;;11.77;8.02;;;;;;;9.18;52.02;101772.84;5069263;28;20048;-79
2023/04/08 00:34:24;;;;;;;13.00;8.02;;;;;;;9.15;52.17;101769.47;5068878;28;20090;-79
2023/04/08 00:36:53;;;;;;;11.02;7.50;;;;;;;9.16;51.97;101771.22;5074522;28;20089;-78
2023/04/08 00:39:21;;;;;;;11.55;8.10;;;;;;;9.15;51.82;101773.06;5097672;28;20043;-79
2023/04/08 00:41:49;;;;;;;12.27;7.90;;;;;;;9.15;52.12;101774.94;5100331;28;20082;-79
2023/04/08 00:44:17;;;;;;;11.40;7.72;;;;;;;9.13;52.28;101765.94;5081215;28;20059;-80
2023/04/08 00:46:46;;;;;;;9.98;7.30;;;;;;;9.14;52.22;101774.03;5074637;28;20052;-80
2023/04/08 00:49:16;;;;;;;11.05;6.93;;;;;;;9.14;51.98;101779.50;5082759;28;20136;-79
2023/04/08 00:51:44;;;;;;;10.23;6.93;;;;;;;9.14;51.89;101773.16;5079797;28;20052;-79
2023/04/08 00:54:12;;;;;;;9.55;6.90;;;;;;;9.12;52.38;101770.53;5079825;28;20123;-81
2023/04/08 00:57:07;;;;;;;10.55;7.20;;;;;;;9.13;53.01;101771.41;5063767;28;20051;-80
2023/04/08 01:00:09;;;;;;;10.77;6.85;;;;;;;9.08;52.21;101772.59;5098243;28;20043;-79
2023/04/08 01:02:47;;;;;;;12.00;7.22;;;;;;;9.11;52.45;101785.16;5055930;28;20068;-79
2023/04/08 01:05:21;;;;;;;;;;;;;;;8.86;53.27;101787.75;5067638;28;20362;-80
2023/04/08 01:07:50;;;;;;;11.52;7.07;;;;;;;9.07;51.94;101786.38;5088187;28;19971;-81
2023/04/08 01:10:21;;;;;;;11.27;7.50;;;;;;;9.09;52.29;101785.25;5072244;28;20063;-80
2023/04/08 01:12:53;;;;;;;12.52;7.82;;;;;;;9.10;52.27;101786.13;5078109;28;20071;-80
2023/04/08 01:15:22;;;;;;;13.52;8.70;;;;;;;9.06;52.40;101780.03;5070602;28;20245;-81
2023/04/08 01:17:52;;;;;;;13.55;8.60;;;;;;;9.07;52.26;101783.63;5091406;28;20036;-80
2023/04/08 01:20:22;;;;;;;12.82;8.38;;;;;;;9.09;52.17;101787.13;5081950;28;20134;-80
2023/04/08 01:23:05;;;;;;;14.05;8.70;;;;;;;9.10;53.24;101788.88;5072345;28;20044;-80
2023/04/08 01:25:35;;;;;;;12.30;8.80;;;;;;;9.08;52.21;101785.38;5068197;28;20488;-80
2023/04/08 01:28:07;;;;;;;16.23;9.40;;;;;;;9.09;52.70;101792.56;5074756;28;20032;-81
2023/04/08 01:30:37;;;;;;;13.25;9.13;;;;;;;9.07;52.64;101792.72;5075608;28;20044;-80
2023/04/08 01:33:06;;;;;;;15.75;9.82;;;;;;;9.08;52.35;101794.44;5073202;28;20479;-80
2023/04/08 01:35:35;;;;;;;15.48;9.77;;;;;;;9.08;52.24;101796.31;5080353;28;20056;-79
2023/04/08 01:38:06;;;;;;;14.02;8.43;;;;;;;9.10;52.60;101799.78;5078870;28;20051;-80
2023/04/08 01:40:35;;;;;;;14.32;8.80;;;;;;;9.09;52.58;101796.19;5072893;28;20070;-80
2023/04/08 01:43:08;;;;;;;16.20;10.07;;;;;;;9.12;53.12;101800.56;5080962;28;20097;-79
2023/04/08 01:45:39;;;;;;;17.17;10.90;;;;;;;9.11;52.46;101793.34;5091608;28;20121;-79
2023/04/08 01:48:07;;;;;;;17.60;11.00;;;;;;;9.12;52.29;101794.25;5084331;28;20071;-81
2023/04/08 01:50:37;;;;;;;16.67;10.32;;;;;;;9.10;52.79;101792.47;5077488;28;20461;-81
2023/04/08 01:53:08;;;;;;;19.13;12.15;;;;;;;9.13;52.31;101796.00;5053143;28;20444;-80
2023/04/08 01:55:38;;;;;;;17.30;11.10;;;;;;;9.13;52.70;101791.41;5060453;28;20044;-79
2023/04/08 01:58:11;;;;;;;19.45;11.75;;;;;;;9.15;52.84;101802.22;5082581;28;20559;-79
2023/04/08 02:00:42;;;;;;;19.88;11.95;;;;;;;9.12;52.72;101795.13;5079390;28;20048;-79
2023/04/08 02:03:17;;;;;;;18.08;11.35;;;;;;;9.14;52.77;101803.22;5077411;28;20713;-78
2023/04/08 02:05:46;;;;;;;20.38;12.45;;;;;;;9.12;52.92;101799.69;5073251;28;20073;-79
2023/04/08 02:08:14;;;;;;;19.48;12.55;;;;;;;9.14;52.89;101806.81;5076516;28;20032;-79
2023/04/08 02:10:42;;;;;;;22.00;12.43;;;;;;;9.15;52.58;101802.22;5074282;28;20124;-79
2023/04/08 02:13:11;;;;;;;22.88;13.48;;;;;;;9.17;52.97;101800.25;5084915;28;20036;-79
2023/04/08 02:15:46;;;;;;;22.10;13.07;;;;;;;9.17;53.09;101797.53;5072945;28;20055;-79
2023/04/08 02:18:22;;;;;;;20.98;13.07;;;;;;;9.17;52.71;101800.25;5082230;28;20384;-78
2023/04/08 02:20:57;;;;;;;20.58;12.75;;;;;;;9.16;53.44;101799.41;5088095;28;20818;-79
2023/04/08 02:23:28;;;;;;;23.48;13.48;;;;;;;9.16;52.76;101806.72;5073607;28;20143;-79
2023/04/08 02:25:57;;;;;;;22.17;13.25;;;;;;;9.15;52.69;101802.22;5074232;28;20441;-79
2023/04/08 02:28:32;;;;;;;21.67;13.00;;;;;;;9.17;53.34;101792.06;5074846;28;20047;-80
2023/04/08 02:31:00;;;;;;;21.85;13.38;;;;;;;9.13;52.47;101796.88;5074630;28;20079;-79
2023/04/08 02:33:29;;;;;;;23.48;13.75;;;;;;;9.17;53.14;101794.78;5075590;28;20064;-79
2023/04/08 02:35:58;;;;;;;22.23;13.82;;;;;;;9.17;52.58;101798.41;5060742;28;20044;-79
2023/04/08 02:38:29;;;;;;;20.55;12.95;;;;;;;9.18;52.61;101802.88;5054340;28;20050;-78
2023/04/08 02:40:57;;;;;;;22.08;14.00;;;;;;;9.16;52.86;101802.13;5057705;28;20044;-79
2023/04/08 02:43:30;;;;;;;22.67;13.15;;;;;;;9.18;52.68;101804.75;5072750;28;20040;-79
2023/04/08 02:46:02;;;;;;;22.65;13.55;;;;;;;9.18;53.08;101805.63;5066702;28;20786;-80
2023/04/08 02:48:30;;;;;;;22.73;13.27;;;;;;;9.16;52.86;101801.25;5048518;28;20049;-79
2023/04/08 02:50:58;;;;;;;23.55;13.73;;;;;;;9.18;52.76;101802.88;5069452;28;20127;-81
2023/04/08 02:53:26;;;;;;;25.83;15.45;;;;;;;9.16;53.18;101804.88;5051565;28;20082;-81
2023/04/08 02:55:54;;;;;;;26.45;14.57;;;;;;;9.18;53.01;101808.34;5053937;28;20036;-79
2023/04/08 02:58:22;;;;;;;24.05;14.10;;;;;;;9.17;53.19;101809.31;5051869;28;20056;-78
2023/04/08 03:00:50;;;;;;;24.98;15.57;;;;;;;9.17;53.00;101808.44;5070644;28;20467;-80
2023/04/08 03:03:26;;;;;;;23.40;13.82;;;;;;;9.19;52.88;101806.50;5053766;28;20049;-79
2023/04/08 03:05:54;;;;;;;25.23;14.55;;;;;;;9.16;53.28;101807.59;5061460;28;20040;-81
2023/04/08 03:08:22;;;;;;;25.02;13.93;;;;;;;9.18;52.66;101815.66;5083594;28;20047;-79
2023/04/08 03:10:50;;;;;;;25.17;14.20;;;;;;;9.17;53.29;101812.06;5090586;28;20082;-79
2023/04/08 03:13:18;;;;;;;27.90;15.57;;;;;;;9.17;53.13;101811.19;5079982;28;20108;-80
2023/04/08 03:15:46;;;;;;;23.80;14.40;;;;;;;9.15;52.84;101808.56;5069202;28;20380;-79
2023/04/08 03:18:14;;;;;;;28.90;16.23;;;;;;;9.13;53.14;101813.25;5061544;28;20059;-79
2023/04/08 03:20:43;;;;;;;28.05;16.25;;;;;;;9.14;52.65;101820.47;5056891;28;20052;-79
2023/04/08 03:23:11;;;;;;;26.80;15.65;;;;;;;9.13;52.93;101812.38;5059459;28;20048;-79
2023/04/08 03:25:39;;;;;;;25.08;15.32;;;;;;;9.10;53.00;101817.06;5049171;28;20084;-79
2023/04/08 03:28:07;;;;;;;27.48;15.70;;;;;;;9.08;52.91;101821.72;5064005;28;20054;-79
2023/04/08 03:30:35;;;;;;;25.75;14.93;;;;;;;9.08;52.84;101821.72;5076924;28;20043;-79
2023/04/08 03:33:06;;;;;;;26.48;15.90;;;;;;;9.06;52.62;101817.38;5094156;28;20071;-79
2023/04/08 03:35:36;;;;;;;27.98;15.82;;;;;;;9.05;52.57;101824.69;5068361;28;20044;-79
2023/04/08 03:38:05;;;;;;;25.75;15.20;;;;;;;9.04;53.10;101817.47;5068285;28;20103;-79
2023/04/08 03:40:33;;;;;;;27.35;16.05;;;;;;;9.04;53.15;101819.31;5066793;28;22046;-79
2023/04/08 03:43:01;;;;;;;28.17;16.75;;;;;;;9.03;52.79;101818.44;5072668;28;20065;-78
2023/04/08 03:45:30;;;;;;;29.15;16.88;;;;;;;9.00;52.47;101821.38;5068746;28;20074;-81
2023/04/08 03:47:58;;;;;;;28.15;16.38;;;;;;;9.01;52.72;101817.66;5066465;28;20234;-80
2023/04/08 03:50:26;;;;;;;28.60;15.75;;;;;;;9.02;52.64;101824.00;5067794;28;20051;-81
2023/04/08 03:52:54;;;;;;;27.05;15.98;;;;;;;9.00;52.82;101821.38;5056699;28;20054;-81
2023/04/08 03:55:23;;;;;;;28.67;16.05;;;;;;;9.01;53.14;101827.72;5053888;28;20438;-80
2023/04/08 03:57:54;;;;;;;26.98;15.32;;;;;;;9.00;53.18;101828.72;5063001;28;20534;-80
2023/04/08 04:00:22;;;;;;;24.15;14.55;;;;;;;8.98;52.95;101827.94;5049338;28;20467;-80
2023/04/08 04:02:50;;;;;;;26.02;15.55;;;;;;;8.99;52.67;101816.91;5070662;28;20506;-79
2023/04/08 04:05:18;;;;;;;23.65;14.38;;;;;;;8.99;52.61;101821.50;5068393;28;20615;-79
2023/04/08 04:07:46;;;;;;;27.30;15.80;;;;;;;9.00;53.00;101823.25;5063183;28;20047;-78
2023/04/08 04:10:14;;;;;;;25.58;14.25;;;;;;;8.99;52.73;101822.38;5078132;28;20037;-79
2023/04/08 04:12:43;;;;;;;25.98;14.80;;;;;;;9.01;52.83;101824.97;5068327;28;20052;-79
2023/04/08 04:15:12;;;;;;;24.05;14.02;;;;;;;8.99;52.77;101824.22;5070928;28;20043;-79
2023/04/08 04:17:40;;;;;;;24.23;14.48;;;;;;;8.98;52.89;101828.81;5069942;28;20055;-79
2023/04/08 04:20:09;;;;;;;24.50;14.23;;;;;;;8.99;53.02;101826.94;5056307;28;20043;-79
2023/04/08 04:22:36;;;;;;;25.52;14.82;;;;;;;8.97;52.63;101832.50;5075277;28;20151;-79
2023/04/08 04:25:05;;;;;;;23.65;13.98;;;;;;;8.98;52.36;101836.13;5077663;28;20059;-79
2023/04/08 04:27:34;;;;;;;24.27;14.07;;;;;;;8.95;52.64;101842.66;5078466;28;20123;-80
2023/04/08 04:30:04;;;;;;;24.70;13.90;;;;;;;8.97;52.74;101840.69;5075267;28;20040;-80
2023/04/08 04:32:31;;;;;;;25.08;14.63;;;;;;;8.95;52.71;101839.03;5076551;28;20102;-80
2023/04/08 04:34:59;;;;;;;25.10;13.93;;;;;;;8.95;52.48;101849.97;5082296;28;20496;-80
2023/04/08 04:37:27;;;;;;;26.15;14.40;;;;;;;8.93;52.48;101852.78;5074051;28;20052;-79
2023/04/08 04:39:55;;;;;;;24.17;14.43;;;;;;;8.91;52.75;101859.34;5075852;28;20036;-80
2023/04/08 04:42:23;;;;;;;24.15;13.77;;;;;;;8.91;52.19;101860.22;5081457;28;20062;-80
2023/04/08 04:44:51;;;;;;;24.02;14.48;;;;;;;8.90;52.53;101857.59;5072055;28;20082;-81
2023/04/08 04:47:20;;;;;;;25.27;14.27;;;;;;;8.91;52.78;101860.22;5076665;28;20060;-81
2023/04/08 04:49:48;;;;;;;24.20;13.75;;;;;;;8.90;52.29;101855.72;5077818;28;20054;-80
2023/04/08 04:52:16;;;;;;;21.98;13.15;;;;;;;8.87;52.18;101865.97;5078428;28;20143;-80
2023/04/08 04:54:44;;;;;;;25.42;14.10;;;;;;;8.88;52.32;101864.97;5078536;28;20039;-81
2023/04/08 04:57:12;;;;;;;22.45;12.63;;;;;;;8.87;52.21;101866.84;5086852;28;20111;-80
2023/04/08 04:59:40;;;;;;;23.48;13.52;;;;;;;8.86;52.23;101867.81;5078491;28;20059;-78
2023/04/08 05:02:07;;;;;;;23.60;13.50;;;;;;;8.86;52.61;101869.66;5076750;28;20054;-81
2023/04/08 05:04:37;;;;;;;23.65;13.35;;;;;;;8.86;52.26;101866.94;5097572;28;20432;-81
2023/04/08 05:07:05;;;;;;;22.23;12.85;;;;;;;8.85;52.08;101876.97;5074790;28;20340;-80
2023/04/08 05:09:33;;;;;;;22.73;12.50;;;;;;;8.83;52.46;101870.75;5069526;28;20048;-80
2023/04/08 05:12:01;;;;;;;19.73;11.20;;;;;;;8.84;52.35;101871.59;5057727;28;20036;-80
2023/04/08 05:14:29;;;;;;;21.25;12.27;;;;;;;8.83;52.53;101868.03;5051199;28;20038;-79
2023/04/08 05:16:57;;;;;;;19.55;12.05;;;;;;;8.83;52.44;101875.34;5070118;28;20063;-81
2023/04/08 05:19:25;;;;;;;21.38;12.90;;;;;;;8.83;52.23;101872.59;5081595;28;20048;-81
2023/04/08 05:21:54;;;;;;;22.95;12.57;;;;;;;8.84;52.54;101877.06;5066893;28;20072;-81
2023/04/08 05:24:22;;;;;;;18.92;11.43;;;;;;;8.83;52.47;101884.41;5070765;28;20044;-80
2023/04/08 05:26:52;;;;;;;19.50;11.55;;;;;;;8.81;52.51;101880.00;5089620;28;20041;-80
2023/04/08 05:29:20;;;;;;;19.70;11.98;;;;;;;8.82;52.63;101887.22;5071247;28;20158;-80
2023/04/08 05:31:48;;;;;;;18.40;10.65;;;;;;;8.82;52.39;101889.97;5072875;28;20060;-80
2023/04/08 05:34:21;;;;;;;21.42;11.80;;;;;;;8.81;52.06;101885.47;5055490;28;20102;-79
2023/04/08 05:36:50;;;;;;;;;;;;;;;8.56;53.25;101888.88;5086833;28;20044;-81
2023/04/08 05:39:20;;;;;;;19.63;11.45;;;;;;;8.78;52.36;101902.91;5076673;28;19931;-81
2023/04/08 05:41:48;;;;;;;18.77;11.57;;;;;;;8.80;52.25;101909.16;5072650;28;20047;-80
2023/04/08 05:44:16;;;;;;;21.52;12.85;;;;;;;8.79;52.11;101901.06;5089390;28;20044;-81
2023/04/08 05:46:44;;;;;;;23.55;14.15;;;;;;;8.78;51.86;101905.63;5073459;28;20063;-82
2023/04/08 05:49:12;;;;;;;21.10;12.43;;;;;;;8.77;52.30;101900.28;5080967;28;20050;-82
2023/04/08 05:51:40;;;;;;;20.80;13.20;;;;;;;8.77;52.33;101911.19;5080106;28;20145;-79
2023/04/08 05:54:08;;;;;;;19.88;11.70;;;;;;;8.76;52.55;101915.75;5089502;28;20039;-80
2023/04/08 05:56:37;;;;;;;22.38;12.80;;;;;;;8.76;52.63;101917.63;5085711;28;20121;-80
2023/04/08 05:59:05;;;;;;;22.02;12.55;;;;;;;8.77;52.23;101911.19;5087997;22;20049;-70
2023/04/08 06:01:33;;;;;;;22.65;13.18;;;;;;;8.77;52.55;101917.53;5064181;28;20068;-71
2023/04/08 06:04:00;;;;;;;20.67;12.30;;;;;;;8.78;52.40;101923.88;5071227;28;20111;-69
2023/04/08 06:06:29;;;;;;;22.30;13.23;;;;;;;8.79;52.31;101925.63;5080869;28;20047;-69
2023/04/08 06:08:57;;;;;;;22.33;13.38;;;;;;;8.79;52.85;101921.03;5082507;28;20036;-70
2023/04/08 06:11:24;;;;;;;23.67;13.77;;;;;;;8.80;52.69;101924.66;5085687;28;20047;-69
2023/04/08 06:13:54;;;;;;;25.48;15.45;;;;;;;8.83;52.40;101927.19;5077457;28;20051;-71
2023/04/08 06:16:22;;;;;;;25.75;14.77;;;;;;;8.82;52.32;101931.78;5078738;28;20048;-71
2023/04/08 06:18:50;;;;;;;25.88;14.93;;;;;;;8.83;52.42;101921.75;5082893;28;20456;-71
2023/04/08 06:21:18;;;;;;;24.83;14.50;;;;;;;8.84;53.00;101938.00;5076620;28;20052;-71
2023/04/08 06:23:46;;;;;;;25.38;14.80;;;;;;;8.85;52.31;101934.28;5074892;28;20094;-71
2023/04/08 06:26:14;;;;;;;23.30;14.00;;;;;;;8.86;52.68;101935.19;5074342;28;20055;-72
2023/04/08 06:28:42;;;;;;;24.55;14.95;;;;;;;8.88;52.84;101946.88;5062639;28;20044;-72
2023/04/08 06:31:11;;;;;;;24.50;14.80;;;;;;;8.90;52.88;101948.56;5082997;28;20048;-71
2023/04/08 06:33:39;;;;;;;23.13;14.40;;;;;;;8.89;52.37;101954.97;5082200;28;20047;-69
2023/04/08 06:36:08;;;;;;;24.80;15.18;;;;;;;8.91;52.81;101955.78;5085575;28;20497;-72
2023/04/08 06:38:35;;;;;;;25.88;16.00;;;;;;;8.91;52.51;101954.88;5074914;28;20060;-73
2023/04/08 06:41:04;;;;;;;24.45;14.82;;;;;;;8.93;52.51;101952.91;5075544;28;20052;-71
2023/04/08 06:43:32;;;;;;;27.23;15.40;;;;;;;8.91;52.67;101953.03;5086341;28;20051;-72
2023/04/08 06:46:00;;;;;;;25.67;15.82;;;;;;;8.94;52.03;101960.13;5059460;28;20447;-72
2023/04/08 06:48:30;;;;;;;25.63;14.77;;;;;;;8.96;52.59;101958.19;5027909;28;20044;-72
2023/04/08 06:50:59;;;;;;;22.52;13.98;;;;;;;8.95;52.69;101956.44;5060986;28;20135;-72
2023/04/08 06:53:28;;;;;;;27.73;16.42;;;;;;;8.95;52.80;101965.50;5091051;28;20385;-72
2023/04/08 06:55:56;;;;;;;25.92;15.20;;;;;;;8.95;52.47;101962.78;5078716;28;20044;-72
2023/04/08 06:58:24;;;;;;;29.40;15.82;;;;;;;8.97;52.85;101960.84;5085161;28;20036;-72
2023/04/08 07:00:53;;;;;;;26.52;14.82;;;;;;;9.00;52.88;101962.50;5082811;28;20048;-72
2023/04/08 07:03:21;;;;;;;26.27;15.25;;;;;;;8.99;52.33;101967.09;5075475;28;20201;-72
2023/04/08 07:05:51;;;;;;;29.48;15.45;;;;;;;9.01;52.47;101970.56;5085735;28;20048;-72
2023/04/08 07:08:19;;;;;;;29.63;15.43;;;;;;;9.01;52.68;101977.88;5099839;28;20104;-72
2023/04/08 07:10:47;;;;;;;30.13;16.08;;;;;;;9.01;52.18;101972.41;5094991;28;20534;-72
2023/04/08 07:13:16;;;;;;;32.08;16.42;;;;;;;9.02;52.40;101971.44;5084472;28;20081;-73
2023/04/08 07:15:44;;;;;;;32.35;17.48;;;;;;;9.02;52.38;101972.34;5097359;27;20063;-72
2023/04/08 07:18:12;;;;;;;31.95;17.83;;;;;;;9.03;52.13;101971.34;5104892;28;20585;-73
2023/04/08 07:20:40;;;;;;;34.08;18.77;;;;;;;9.04;52.22;101975.84;5103443;27;20097;-73
2023/04/08 07:23:10;;;;;;;34.63;18.80;;;;;;;9.07;52.31;101972.06;5089213;27;20044;-72
2023/04/08 07:25:37;;;;;;;36.85;19.75;;;;;;;9.07;52.85;101978.41;5093143;27;20060;-72
2023/04/08 07:28:05;;;;;;;38.45;20.23;;;;;;;9.10;52.86;101980.03;5094888;28;20042;-72
2023/04/08 07:30:33;;;;;;;39.50;22.23;;;;;;;9.12;52.66;101983.56;5096751;28;21363;-72
2023/04/08 07:33:01;;;;;;;41.03;23.08;;;;;;;9.13;52.78;101978.97;5104975;28;20036;-73
2023/04/08 07:35:30;;;;;;;45.05;23.00;;;;;;;9.15;52.71;101986.09;5086245;28;20398;-73
2023/04/08 07:37:58;;;;;;;42.63;23.27;;;;;;;9.17;52.26;101986.84;5101119;28;20512;-73
2023/04/08 07:40:28;;;;;;;46.10;24.45;;;;;;;9.19;52.72;101989.50;5108967;27;20050;-72
2023/04/08 07:42:56;;;;;;;45.22;23.60;;;;;;;9.19;52.61;101997.69;5093663;28;20053;-71
2023/04/08 07:45:24;;;;;;;44.50;24.02;;;;;;;9.20;52.29;102003.06;5093904;28;20089;-72
2023/04/08 07:47:52;;;;;;;45.92;24.65;;;;;;;9.21;52.57;102009.41;5098843;28;20113;-73
2023/04/08 07:50:20;;;;;;;46.50;24.17;;;;;;;9.22;52.14;102008.44;5082271;28;20423;-72
2023/04/08 07:52:48;;;;;;;48.72;24.58;;;;;;;9.24;52.23;102011.94;5089432;28;20379;-72
2023/04/08 07:55:16;;;;;;;50.03;24.85;;;;;;;9.24;52.48;102017.41;5087243;27;20051;-73
2023/04/08 07:57:45;;;;;;;47.40;24.13;;;;;;;9.25;52.52;102010.94;5102595;28;20051;-71
2023/04/08 08:00:19;;;;;;;49.15;26.67;;;;;;;9.26;51.88;102018.16;5098727;28;20123;-73
2023/04/08 08:02:48;;;;;;;48.45;24.08;;;;;;;9.25;52.02;102020.03;5073367;28;20058;-72
2023/04/08 08:05:16;;;;;;;47.92;22.67;;;;;;;9.25;52.17;102021.88;5101985;28;20048;-72
2023/04/08 08:07:44;;;;;;;45.90;24.33;;;;;;;9.26;52.34;102023.63;5105064;28;20402;-72
2023/04/08 08:10:11;;;;;;;41.88;22.60;;;;;;;9.27;51.85;102018.06;5087842;28;20036;-72
2023/04/08 08:12:39;;;;;;;45.80;22.55;;;;;;;9.29;52.55;102037.09;5095056;28;20035;-72
2023/04/08 08:15:10;;;;;;;40.20;21.50;;;;;;;9.30;51.99;102041.59;5107956;28;20044;-72
2023/04/08 08:17:38;;;;;;;39.72;20.88;;;;;;;9.29;51.83;102037.09;5107956;27;20127;-72
2023/04/08 08:20:07;;;;;;;36.40;20.17;;;;;;;9.30;52.01;102037.03;5095390;28;20040;-72
2023/04/08 08:22:35;;;;;;;40.50;21.58;;;;;;;9.31;52.03;102046.09;5095440;28;20052;-73
2023/04/08 08:25:18;;;;;;;36.30;20.45;;;;;;;9.30;52.54;102038.88;5081349;28;20071;-73
2023/04/08 08:27:46;;;;;;;35.08;21.10;;;;;;;9.32;52.08;102043.28;5085521;28;20511;-73
2023/04/08 08:30:17;;;;;;;33.45;20.05;;;;;;;9.34;52.35;102049.50;5094659;28;20515;-71
2023/04/08 08:32:46;;;;;;;32.90;18.23;;;;;;;9.34;52.05;102046.75;5088096;28;20043;-72
2023/04/08 08:35:14;;;;;;;32.30;18.75;;;;;;;9.35;52.16;102053.97;5098009;28;20055;-72
2023/04/08 08:37:42;;;;;;;31.02;18.27;;;;;;;9.36;52.02;102058.47;5107543;28;20035;-72
2023/04/08 08:40:11;;;;;;;30.73;17.80;;;;;;;9.38;52.05;102053.84;5103939;28;20398;-72
2023/04/08 08:42:39;;;;;;;27.58;16.48;;;;;;;9.38;52.44;102056.56;5102445;27;20449;-73
2023/04/08 08:45:08;;;;;;;31.42;17.55;;;;;;;9.40;52.08;102051.88;5107825;28;20035;-72
2023/04/08 08:47:37;;;;;;;32.10;18.10;;;;;;;9.42;52.38;102057.22;5095748;28;20070;-72
2023/04/08 08:50:06;;;;;;;32.70;18.58;;;;;;;9.41;52.30;102056.34;5099442;28;20649;-72
2023/04/08 08:52:34;;;;;;;35.38;19.83;;;;;;;9.42;52.22;102051.75;5069297;28;20040;-72
2023/04/08 08:55:02;;;;;;;39.00;20.73;;;;;;;9.42;51.79;102057.22;5103103;27;20044;-72
2023/04/08 08:57:50;;;;;;;40.78;21.45;;;;;;;9.45;51.91;102059.78;5096063;28;20584;-72
2023/04/08 09:00:18;;;;;;;43.22;21.80;;;;;;;9.45;51.84;102052.47;5088725;28;20419;-73
2023/04/08 09:02:47;;;;;;;44.03;22.02;;;;;;;9.47;52.10;102060.56;5103342;27;20110;-72
2023/04/08 09:05:15;;;;;;;39.65;22.73;;;;;;;9.47;52.26;102063.31;5080915;28;20615;-72
2023/04/08 09:07:44;;;;;;;42.35;21.88;;;;;;;9.47;51.92;102060.56;5093914;27;20048;-72
2023/04/08 09:10:12;;;;;;;42.63;22.63;;;;;;;9.48;51.77;102065.06;5095807;28;20090;-72
2023/04/08 09:12:54;;;;;;;43.50;23.10;;;;;;;9.52;51.90;102063.00;5095496;28;20104;-73
2023/04/08 09:15:22;;;;;;;40.80;21.85;;;;;;;9.48;52.00;102064.19;5101944;27;20092;-72
2023/04/08 09:17:51;;;;;;;43.42;23.83;;;;;;;9.51;51.75;102062.09;5099473;27;20059;-74
2023/04/08 09:20:19;;;;;;;45.05;21.70;;;;;;;9.51;52.25;102063.97;5096328;28;20047;-73
2023/04/08 09:22:58;;;;;;;41.53;22.90;;;;;;;9.55;51.56;102062.81;5091045;28;20028;-72
2023/04/08 09:25:27;;;;;;;40.20;22.33;;;;;;;9.52;51.71;102066.59;5094219;28;20100;-72
2023/04/08 09:27:55;;;;;;;45.22;24.27;;;;;;;9.53;51.67;102073.81;5095820;27;20516;-71
2023/04/08 09:30:25;;;;;;;42.92;23.77;;;;;;;9.54;51.80;102071.97;5105866;27;20084;-73
2023/04/08 09:32:55;;;;;;;44.83;24.45;;;;;;;9.56;51.77;102067.28;5088823;28;20036;-73
2023/04/08 09:35:24;;;;;;;43.28;23.38;;;;;;;9.55;51.52;102074.63;5094213;28;20497;-72
2023/04/08 09:37:52;;;;;;;44.95;23.25;;;;;;;9.55;52.19;102082.81;5097563;28;20089;-72
2023/04/08 09:40:20;;;;;;;43.35;23.85;;;;;;;9.58;51.62;102082.59;5083376;28;20048;-73
2023/04/08 09:42:50;;;;;;;37.53;22.23;;;;;;;9.59;52.13;102086.22;5098522;28;20558;-72
2023/04/08 09:45:19;;;;;;;36.63;20.98;;;;;;;9.62;51.42;102091.50;5099412;28;20048;-72
2023/04/08 09:48:02;;;;;;;38.50;21.67;;;;;;;9.64;51.24;102089.53;5097843;28;20044;-72
2023/04/08 09:50:32;;;;;;;36.65;21.33;;;;;;;9.64;52.12;102084.97;5092751;28;20051;-73
2023/04/08 09:53:08;;;;;;;41.25;21.83;;;;;;;9.66;51.88;102082.97;5098240;28;20039;-72
2023/04/08 09:55:37;;;;;;;36.40;20.42;;;;;;;9.68;51.61;102094.69;5100184;28;20051;-72
2023/04/08 09:58:11;;;;;;;36.40;20.73;;;;;;;9.72;51.86;102093.53;5099680;27;20043;-71
2023/04/08 10:00:45;;;;;;;38.95;21.17;;;;;;;9.73;51.44;102089.84;5087015;28;20075;-72
2023/04/08 10:03:23;;;;;;;36.53;20.52;;;;;;;9.77;51.77;102090.50;5096972;28;20707;-73
2023/04/08 10:05:55;;;;;;;38.38;21.35;;;;;;;9.77;51.64;102082.31;5096235;28;20467;-72
2023/04/08 10:08:24;;;;;;;34.20;19.85;;;;;;;9.79;51.68;102083.97;5095179;28;20440;-74
2023/04/08 10:10:55;;;;;;;34.85;19.48;;;;;;;9.80;51.12;102085.72;5094469;28;20043;-73
2023/04/08 10:13:23;;;;;;;32.90;19.77;;;;;;;9.81;51.05;102084.75;5080472;28;20565;-74
2023/04/08 10:16:11;;;;;;;33.85;19.15;;;;;;;9.82;51.40;102083.75;5107347;27;20078;-72
2023/04/08 10:18:41;;;;;;;33.42;20.45;;;;;;;9.84;51.52;102080.91;5103174;27;20035;-73
2023/04/08 10:21:31;;;;;;;32.42;20.65;;;;;;;9.84;51.29;102089.13;5105317;27;20052;-73
2023/04/08 10:24:04;;;;;;;37.22;20.60;;;;;;;9.87;51.14;102088.06;5104388;27;20032;-72
2023/04/08 10:26:37;;;;;;;31.63;18.50;;;;;;;9.90;51.05;102082.41;5097994;28;20039;-72
2023/04/08 10:29:30;;;;;;;31.05;17.85;;;;;;;9.89;50.65;102089.72;5100035;28;20040;-73
2023/04/08 10:31:58;;;;;;;32.22;18.65;;;;;;;9.91;50.93;102085.00;5102382;28;20050;-72
2023/04/08 10:34:28;;;;;;;36.20;19.05;;;;;;;9.96;51.29;102074.66;5086892;28;20047;-72
2023/04/08 10:37:00;;;;;;;31.38;18.45;;;;;;;9.99;51.14;102084.53;5103184;28;20051;-73
2023/04/08 10:39:30;;;;;;;32.67;18.85;;;;;;;9.99;50.96;102095.47;5107576;27;20541;-72
2023/04/08 10:41:58;;;;;;;29.67;18.95;;;;;;;10.03;51.16;102092.41;5080630;28;20051;-73
2023/04/08 10:44:26;;;;;;;34.45;19.40;;;;;;;10.07;50.61;102083.00;5107565;27;20443;-73
2023/04/08 10:46:54;;;;;;;33.22;19.20;;;;;;;10.09;50.88;102083.81;5086172;28;20044;-73
2023/04/08 10:49:22;;;;;;;33.20;19.30;;;;;;;10.13;50.64;102095.44;5105736;28;20035;-73
2023/04/08 10:51:52;;;;;;;32.55;18.40;;;;;;;10.17;51.15;102083.28;5086623;28;20177;-73
2023/04/08 10:54:20;;;;;;;33.75;19.10;;;;;;;10.20;51.07;102088.56;5093653;28;20115;-74
2023/04/08 10:56:50;;;;;;;33.40;19.90;;;;;;;10.26;51.03;102082.69;5068431;28;20040;-73
2023/04/08 10:59:27;;;;;;;31.13;18.27;;;;;;;10.29;50.55;102071.53;5098414;28;20397;-74
2023/04/08 11:01:55;;;;;;;32.70;20.40;;;;;;;10.34;50.92;102068.47;5104969;27;20129;-73
2023/04/08 11:04:23;;;;;;;34.80;19.13;;;;;;;10.41;51.29;102078.03;5077239;28;20044;-74
2023/04/08 11:06:52;;;;;;;31.27;19.30;;;;;;;10.49;50.80;102072.91;5101990;28;20499;-73
2023/04/08 11:09:20;;;;;;;28.60;17.88;;;;;;;10.55;51.24;102067.94;5103413;28;20059;-72
2023/04/08 11:11:48;;;;;;;30.52;19.02;;;;;;;10.63;51.08;102072.91;5099564;27;20046;-74
2023/04/08 11:14:20;;;;;;;30.08;18.95;;;;;;;10.72;50.73;102065.91;5099136;28;20054;-72
2023/04/08 11:16:48;;;;;;;33.97;19.10;;;;;;;10.75;50.78;102066.56;5097097;28;20062;-72
2023/04/08 11:19:16;;;;;;;32.58;18.90;;;;;;;10.83;50.72;102053.22;5104120;27;20425;-72
2023/04/08 11:21:45;;;;;;;29.88;18.35;;;;;;;10.91;50.43;102056.28;5104077;28;20490;-71
2023/04/08 11:24:15;;;;;;;30.20;19.42;;;;;;;10.97;50.01;102055.00;5103695;28;20527;-71
2023/04/08 11:26:43;;;;;;;29.83;18.90;;;;;;;11.03;49.51;102050.94;5102907;27;20074;-71
2023/04/08 11:29:13;;;;;;;28.63;18.88;;;;;;;11.08;49.50;102051.47;5076017;28;20039;-71
2023/04/08 11:31:43;;;;;;;30.60;19.00;;;;;;;11.12;49.10;102056.66;5093679;28;20051;-71